Ana Sayfa
METAR-TAF:

METAR-TAF

Havaalanları :

Mackinac Island Airport

Mackinac Island, Michigan, Amerika Birleşik Devletleri

Enlem: 45-51-54N, Boylam: 084-38-14W, yükseklik: 226 m

Güncel hava durumu gözlemi

Rapor saat 16:35 UTC de 26 dakika önce yapıldı.
Rüzgar kuzeydan 7 kt
Sıcaklık 2°C
Nem 100%
Basınç 1018 hPa
Görüş mesafesi: 8.0 km
800 ft yükseklikte parçalı bulutlu
1300 ft yükseklikte çok bulutlu
bilinmiyor

METAR: KMCD 041635Z AUTO 36007KT 5SM UP SCT008 OVC013 02/02 A3007 RMK AO2 P0002 T00170017

Saat: 13:01 (17:01 UTC)


TAF: eksik

4.000'den fazla havaalanı için hava durumu gözlemleri ve tahminleri (METAR ve TAF raporları).

Kullanılabilir istasyonlar harita üzerinde sarı ve kırmızı noktalarla gösterilir.

İstasyonun adını görmek için fareyi noktanın üzerinde gezdirin.

Sonrasında hava gözlem ve tahminlerini görmek için tıklayın.

Haritayı değiştirmek için: yaklaştırmak için siyah artı işaretli yeşil düğmeye ve uzaklaştırmak için de eksi işaretli düğmeye hızla tıklayın; bitişik haritalar için yeşil okları kullanın.


METAR-TAF: